sensor_id;sensor_type;location;lat;lon;timestamp;pressure;altitude;pressure_sealevel;temperature;humidity
53916;BME280;39827;49.652;18.770;2023-11-19T00:02:08;75603.94;;;-149.71;91.19
53916;BME280;39827;49.652;18.770;2023-11-19T00:04:36;75589.88;;;-149.71;90.97
53916;BME280;39827;49.652;18.770;2023-11-19T00:07:03;75587.84;;;-149.71;90.92
53916;BME280;39827;49.652;18.770;2023-11-19T00:09:30;75611.97;;;-149.71;90.86
53916;BME280;39827;49.652;18.770;2023-11-19T00:11:56;75597.91;;;-149.71;91.32
53916;BME280;39827;49.652;18.770;2023-11-19T00:14:22;75605.94;;;-149.71;91.09
53916;BME280;39827;49.652;18.770;2023-11-19T00:16:47;75607.97;;;-149.71;90.72
53916;BME280;39827;49.652;18.770;2023-11-19T00:19:12;75609.97;;;-149.71;90.92
53916;BME280;39827;49.652;18.770;2023-11-19T00:21:38;75609.97;;;-149.71;90.77
53916;BME280;39827;49.652;18.770;2023-11-19T00:24:03;75597.91;;;-149.71;90.56
53916;BME280;39827;49.652;18.770;2023-11-19T00:26:29;75611.97;;;-149.71;90.74
53916;BME280;39827;49.652;18.770;2023-11-19T00:28:55;75618.00;;;-149.71;90.17
53916;BME280;39827;49.652;18.770;2023-11-19T00:31:21;75609.97;;;-149.71;89.99
53916;BME280;39827;49.652;18.770;2023-11-19T00:33:47;75603.94;;;-149.71;89.95
53916;BME280;39827;49.652;18.770;2023-11-19T00:36:12;75595.91;;;-149.71;89.56
53916;BME280;39827;49.652;18.770;2023-11-19T00:38:38;75579.81;;;-149.71;89.29
53916;BME280;39827;49.652;18.770;2023-11-19T00:41:04;75581.84;;;-149.71;89.20
53916;BME280;39827;49.652;18.770;2023-11-19T00:43:29;75585.84;;;-149.71;89.75
53916;BME280;39827;49.652;18.770;2023-11-19T00:45:54;75605.94;;;-149.71;89.52
53916;BME280;39827;49.652;18.770;2023-11-19T00:48:20;75607.97;;;-149.71;89.96
53916;BME280;39827;49.652;18.770;2023-11-19T00:50:45;75609.97;;;-149.71;90.06
53916;BME280;39827;49.652;18.770;2023-11-19T00:53:11;75601.94;;;-149.71;90.32
53916;BME280;39827;49.652;18.770;2023-11-19T00:55:37;75597.91;;;-149.71;89.84
53916;BME280;39827;49.652;18.770;2023-11-19T00:58:02;75595.91;;;-149.71;89.70
53916;BME280;39827;49.652;18.770;2023-11-19T01:00:28;75591.88;;;-149.71;90.05
53916;BME280;39827;49.652;18.770;2023-11-19T01:02:54;75577.81;;;-149.71;89.38
53916;BME280;39827;49.652;18.770;2023-11-19T01:05:20;75603.94;;;-149.71;89.86
53916;BME280;39827;49.652;18.770;2023-11-19T01:07:47;75611.97;;;-149.71;90.45
53916;BME280;39827;49.652;18.770;2023-11-19T01:10:13;75599.91;;;-149.71;90.28
53916;BME280;39827;49.652;18.770;2023-11-19T01:12:40;75601.94;;;-149.71;89.75
53916;BME280;39827;49.652;18.770;2023-11-19T01:15:06;75605.94;;;-149.71;89.62
53916;BME280;39827;49.652;18.770;2023-11-19T01:17:32;75595.91;;;-149.71;89.81
53916;BME280;39827;49.652;18.770;2023-11-19T01:19:57;75597.91;;;-149.71;89.40
53916;BME280;39827;49.652;18.770;2023-11-19T01:22:23;75601.94;;;-149.71;89.94
53916;BME280;39827;49.652;18.770;2023-11-19T01:24:48;75616.00;;;-149.71;89.22
53916;BME280;39827;49.652;18.770;2023-11-19T01:27:14;75589.88;;;-149.71;89.11
53916;BME280;39827;49.652;18.770;2023-11-19T01:29:39;75587.84;;;-149.71;89.26
53916;BME280;39827;49.652;18.770;2023-11-19T01:32:05;75595.91;;;-149.71;89.75
53916;BME280;39827;49.652;18.770;2023-11-19T01:34:30;75589.88;;;-149.71;89.73
53916;BME280;39827;49.652;18.770;2023-11-19T01:36:56;75579.81;;;-149.71;89.55
53916;BME280;39827;49.652;18.770;2023-11-19T01:39:21;75575.81;;;-149.71;89.46
53916;BME280;39827;49.652;18.770;2023-11-19T01:41:47;75575.81;;;-149.71;89.28
53916;BME280;39827;49.652;18.770;2023-11-19T01:44:13;75577.81;;;-149.71;89.13
53916;BME280;39827;49.652;18.770;2023-11-19T01:46:40;75577.81;;;-149.71;89.22
53916;BME280;39827;49.652;18.770;2023-11-19T01:49:07;75571.78;;;-149.71;89.00
53916;BME280;39827;49.652;18.770;2023-11-19T01:51:33;75559.72;;;-149.71;88.99
53916;BME280;39827;49.652;18.770;2023-11-19T01:54:00;75569.78;;;-149.71;89.29
53916;BME280;39827;49.652;18.770;2023-11-19T01:56:27;75573.78;;;-149.71;89.72
53916;BME280;39827;49.652;18.770;2023-11-19T01:58:54;75559.72;;;-149.71;89.48
53916;BME280;39827;49.652;18.770;2023-11-19T02:01:21;75563.75;;;-149.71;89.09
53916;BME280;39827;49.652;18.770;2023-11-19T02:03:47;75583.84;;;-149.71;89.17
53916;BME280;39827;49.652;18.770;2023-11-19T02:06:12;75563.75;;;-149.71;89.08
53916;BME280;39827;49.652;18.770;2023-11-19T02:08:39;75537.63;;;-149.71;88.73
53916;BME280;39827;49.652;18.770;2023-11-19T02:11:05;75527.56;;;-149.71;88.76
53916;BME280;39827;49.652;18.770;2023-11-19T02:13:32;75509.47;;;-149.71;88.92
53916;BME280;39827;49.652;18.770;2023-11-19T02:15:58;75509.47;;;-149.71;89.33
53916;BME280;39827;49.652;18.770;2023-11-19T02:18:27;75507.47;;;-149.71;89.17
53916;BME280;39827;49.652;18.770;2023-11-19T02:20:54;75521.53;;;-149.71;89.64
53916;BME280;39827;49.652;18.770;2023-11-19T02:23:20;75519.53;;;-149.71;89.39
53916;BME280;39827;49.652;18.770;2023-11-19T02:28:35;75525.56;;;-149.71;89.02
53916;BME280;39827;49.652;18.770;2023-11-19T02:31:02;75503.44;;;-149.71;89.04
53916;BME280;39827;49.652;18.770;2023-11-19T02:33:30;75487.38;;;-149.71;88.71
53916;BME280;39827;49.652;18.770;2023-11-19T02:35:55;75485.38;;;-149.71;88.52
53916;BME280;39827;49.652;18.770;2023-11-19T02:38:21;75505.47;;;-149.71;88.22
53916;BME280;39827;49.652;18.770;2023-11-19T02:40:47;75517.50;;;-149.71;88.67
53916;BME280;39827;49.652;18.770;2023-11-19T02:43:13;75533.59;;;-149.71;88.62
53916;BME280;39827;49.652;18.770;2023-11-19T02:45:38;75505.47;;;-149.71;89.06
53916;BME280;39827;49.652;18.770;2023-11-19T02:48:04;75503.44;;;-149.71;88.51
53916;BME280;39827;49.652;18.770;2023-11-19T02:50:31;75493.41;;;-149.71;88.06
53916;BME280;39827;49.652;18.770;2023-11-19T02:52:57;75479.34;;;-149.71;88.00
53916;BME280;39827;49.652;18.770;2023-11-19T02:55:23;75481.34;;;-149.71;89.07
53916;BME280;39827;49.652;18.770;2023-11-19T02:57:49;75499.44;;;-149.71;90.07
53916;BME280;39827;49.652;18.770;2023-11-19T03:00:18;75497.41;;;-149.71;90.52
53916;BME280;39827;49.652;18.770;2023-11-19T03:02:46;75503.44;;;-149.71;90.48
53916;BME280;39827;49.652;18.770;2023-11-19T03:05:15;75487.38;;;-149.71;90.68
53916;BME280;39827;49.652;18.770;2023-11-19T03:07:42;75481.34;;;-149.71;90.35
53916;BME280;39827;49.652;18.770;2023-11-19T03:10:11;75469.28;;;-149.71;89.62
53916;BME280;39827;49.652;18.770;2023-11-19T03:12:40;75471.28;;;-149.71;89.88
53916;BME280;39827;49.652;18.770;2023-11-19T03:15:06;75455.22;;;-149.71;89.47
53916;BME280;39827;49.652;18.770;2023-11-19T03:17:32;75455.22;;;-149.71;90.06
53916;BME280;39827;49.652;18.770;2023-11-19T03:19:59;75453.19;;;-149.71;90.47
53916;BME280;39827;49.652;18.770;2023-11-19T03:22:26;75435.13;;;-149.71;89.93
53916;BME280;39827;49.652;18.770;2023-11-19T03:24:51;75439.13;;;-149.71;89.83
53916;BME280;39827;49.652;18.770;2023-11-19T03:27:17;75429.09;;;-149.71;90.04
53916;BME280;39827;49.652;18.770;2023-11-19T03:29:42;75419.03;;;-149.71;89.16
53916;BME280;39827;49.652;18.770;2023-11-19T03:32:08;75413.00;;;-149.71;88.87
53916;BME280;39827;49.652;18.770;2023-11-19T03:34:34;75400.94;;;-149.71;88.46
53916;BME280;39827;49.652;18.770;2023-11-19T03:36:59;75396.94;;;-149.71;88.55
53916;BME280;39827;49.652;18.770;2023-11-19T03:39:25;75404.97;;;-149.71;88.71
53916;BME280;39827;49.652;18.770;2023-11-19T03:41:50;75396.94;;;-149.71;88.31
53916;BME280;39827;49.652;18.770;2023-11-19T03:44:16;75396.94;;;-149.71;88.20
53916;BME280;39827;49.652;18.770;2023-11-19T03:46:42;75396.94;;;-149.71;88.42
53916;BME280;39827;49.652;18.770;2023-11-19T03:49:07;75384.88;;;-149.71;88.26
53916;BME280;39827;49.652;18.770;2023-11-19T03:51:33;75376.84;;;-149.71;87.64
53916;BME280;39827;49.652;18.770;2023-11-19T03:54:00;75354.72;;;-149.71;87.18
53916;BME280;39827;49.652;18.770;2023-11-19T03:56:26;75344.69;;;-149.71;87.44
53916;BME280;39827;49.652;18.770;2023-11-19T03:58:52;75350.72;;;-149.71;87.51
53916;BME280;39827;49.652;18.770;2023-11-19T04:01:18;75334.63;;;-149.71;86.76
53916;BME280;39827;49.652;18.770;2023-11-19T04:03:43;75322.56;;;-149.71;87.26
53916;BME280;39827;49.652;18.770;2023-11-19T04:06:09;75326.59;;;-149.71;87.47
53916;BME280;39827;49.652;18.770;2023-11-19T04:08:35;75332.63;;;-149.71;87.58
53916;BME280;39827;49.652;18.770;2023-11-19T04:11:04;75342.66;;;-149.71;87.46
53916;BME280;39827;49.652;18.770;2023-11-19T04:13:29;75342.66;;;-149.71;87.65
53916;BME280;39827;49.652;18.770;2023-11-19T04:15:55;75328.59;;;-149.71;87.26
53916;BME280;39827;49.652;18.770;2023-11-19T04:18:20;75322.56;;;-149.71;87.69
53916;BME280;39827;49.652;18.770;2023-11-19T04:20:45;75328.59;;;-149.71;87.98
53916;BME280;39827;49.652;18.770;2023-11-19T04:23:11;75320.56;;;-149.71;88.43
53916;BME280;39827;49.652;18.770;2023-11-19T04:25:36;75340.66;;;-149.71;88.64
53916;BME280;39827;49.652;18.770;2023-11-19T04:28:02;75346.69;;;-149.71;88.66
53916;BME280;39827;49.652;18.770;2023-11-19T04:30:28;75352.72;;;-149.71;89.15
53916;BME280;39827;49.652;18.770;2023-11-19T04:32:53;75348.69;;;-149.71;89.27
53916;BME280;39827;49.652;18.770;2023-11-19T04:35:19;75360.75;;;-149.71;89.17
53916;BME280;39827;49.652;18.770;2023-11-19T04:37:44;75356.75;;;-149.71;88.58
53916;BME280;39827;49.652;18.770;2023-11-19T04:40:10;75352.72;;;-149.71;88.41
53916;BME280;39827;49.652;18.770;2023-11-19T04:42:39;75330.63;;;-149.71;88.16
53916;BME280;39827;49.652;18.770;2023-11-19T04:45:06;75336.63;;;-149.71;88.58
53916;BME280;39827;49.652;18.770;2023-11-19T04:47:33;75338.66;;;-149.71;88.84
53916;BME280;39827;49.652;18.770;2023-11-19T04:49:58;75312.53;;;-149.71;88.15
53916;BME280;39827;49.652;18.770;2023-11-19T04:52:24;75298.47;;;-149.71;87.38
53916;BME280;39827;49.652;18.770;2023-11-19T04:54:49;75270.31;;;-149.71;86.87
53916;BME280;39827;49.652;18.770;2023-11-19T04:57:15;75272.34;;;-149.71;85.94
53916;BME280;39827;49.652;18.770;2023-11-19T04:59:40;75260.28;;;-149.71;86.11
53916;BME280;39827;49.652;18.770;2023-11-19T05:02:08;75260.28;;;-149.71;86.34
53916;BME280;39827;49.652;18.770;2023-11-19T05:04:33;75264.28;;;-149.71;86.30
53916;BME280;39827;49.652;18.770;2023-11-19T05:06:59;75250.22;;;-149.71;86.15
53916;BME280;39827;49.652;18.770;2023-11-19T05:09:24;75244.19;;;-149.71;85.09
53916;BME280;39827;49.652;18.770;2023-11-19T05:11:50;75246.22;;;-149.71;85.64
53916;BME280;39827;49.652;18.770;2023-11-19T05:14:15;75250.22;;;-149.71;85.09
53916;BME280;39827;49.652;18.770;2023-11-19T05:16:41;75234.16;;;-149.71;84.46
53916;BME280;39827;49.652;18.770;2023-11-19T05:19:08;75244.19;;;-149.71;84.45
53916;BME280;39827;49.652;18.770;2023-11-19T05:21:34;75218.06;;;-149.71;84.35
53916;BME280;39827;49.652;18.770;2023-11-19T05:24:01;75218.06;;;-149.71;84.20
53916;BME280;39827;49.652;18.770;2023-11-19T05:26:30;75220.09;;;-149.71;84.60
53916;BME280;39827;49.652;18.770;2023-11-19T05:28:55;75232.13;;;-149.71;84.45
53916;BME280;39827;49.652;18.770;2023-11-19T05:31:20;75234.16;;;-149.71;85.40
53916;BME280;39827;49.652;18.770;2023-11-19T05:33:46;75224.09;;;-149.71;84.74
53916;BME280;39827;49.652;18.770;2023-11-19T05:36:12;75234.16;;;-149.71;84.27
53916;BME280;39827;49.652;18.770;2023-11-19T05:38:38;75236.16;;;-149.71;84.34
53916;BME280;39827;49.652;18.770;2023-11-19T05:41:04;75228.13;;;-149.71;84.43
53916;BME280;39827;49.652;18.770;2023-11-19T05:43:30;75226.09;;;-149.71;84.51
53916;BME280;39827;49.652;18.770;2023-11-19T05:45:55;75222.09;;;-149.71;83.84
53916;BME280;39827;49.652;18.770;2023-11-19T05:48:21;75206.00;;;-149.71;84.31
53916;BME280;39827;49.652;18.770;2023-11-19T05:50:46;75224.09;;;-149.71;84.67
53916;BME280;39827;49.652;18.770;2023-11-19T05:53:14;75224.09;;;-149.71;84.64
53916;BME280;39827;49.652;18.770;2023-11-19T05:55:40;75238.16;;;-149.71;83.89
53916;BME280;39827;49.652;18.770;2023-11-19T05:58:12;75244.19;;;-149.71;83.81
53916;BME280;39827;49.652;18.770;2023-11-19T06:00:38;75220.09;;;-149.71;83.39
53916;BME280;39827;49.652;18.770;2023-11-19T06:03:05;75191.94;;;-149.71;83.55
53916;BME280;39827;49.652;18.770;2023-11-19T06:05:32;75193.97;;;-149.71;83.02
53916;BME280;39827;49.652;18.770;2023-11-19T06:07:57;75195.97;;;-149.71;83.58
53916;BME280;39827;49.652;18.770;2023-11-19T06:10:22;75175.88;;;-149.71;83.38
53916;BME280;39827;49.652;18.770;2023-11-19T06:12:54;75191.94;;;-149.71;83.64
53916;BME280;39827;49.652;18.770;2023-11-19T06:15:21;75189.94;;;-149.71;84.31
53916;BME280;39827;49.652;18.770;2023-11-19T06:17:46;75206.00;;;-149.71;84.42
53916;BME280;39827;49.652;18.770;2023-11-19T06:20:12;75195.97;;;-149.71;83.96
53916;BME280;39827;49.652;18.770;2023-11-19T06:22:39;75187.94;;;-149.71;84.59
53916;BME280;39827;49.652;18.770;2023-11-19T06:25:07;75179.88;;;-149.71;84.40
53916;BME280;39827;49.652;18.770;2023-11-19T06:27:33;75165.81;;;-149.71;84.49
53916;BME280;39827;49.652;18.770;2023-11-19T06:29:58;75179.88;;;-149.71;83.44
53916;BME280;39827;49.652;18.770;2023-11-19T06:32:24;75171.84;;;-149.71;84.34
53916;BME280;39827;49.652;18.770;2023-11-19T06:34:49;75167.84;;;-149.71;83.84
53916;BME280;39827;49.652;18.770;2023-11-19T06:37:15;75141.72;;;-149.71;83.82
53916;BME280;39827;49.652;18.770;2023-11-19T06:39:40;75141.72;;;-149.71;83.64
53916;BME280;39827;49.652;18.770;2023-11-19T06:42:06;75127.63;;;-149.71;83.34
53916;BME280;39827;49.652;18.770;2023-11-19T06:44:32;75127.63;;;-149.71;83.62
53916;BME280;39827;49.652;18.770;2023-11-19T06:46:58;75131.66;;;-149.71;83.33
53916;BME280;39827;49.652;18.770;2023-11-19T06:49:23;75097.50;;;-149.71;83.34
53916;BME280;39827;49.652;18.770;2023-11-19T06:51:49;75093.47;;;-149.71;83.21
53916;BME280;39827;49.652;18.770;2023-11-19T06:54:15;75093.47;;;-149.71;82.92
53916;BME280;39827;49.652;18.770;2023-11-19T06:56:41;75091.47;;;-149.71;83.04
53916;BME280;39827;49.652;18.770;2023-11-19T06:59:07;75073.38;;;-149.71;83.13
53916;BME280;39827;49.652;18.770;2023-11-19T07:01:36;75063.34;;;-149.71;81.93
53916;BME280;39827;49.652;18.770;2023-11-19T07:04:02;75067.34;;;-149.71;81.32
53916;BME280;39827;49.652;18.770;2023-11-19T07:06:33;75063.34;;;-149.71;80.86
53916;BME280;39827;49.652;18.770;2023-11-19T07:08:59;75063.34;;;-149.71;80.90
53916;BME280;39827;49.652;18.770;2023-11-19T07:11:27;75071.38;;;-149.71;81.56
53916;BME280;39827;49.652;18.770;2023-11-19T07:13:53;75061.31;;;-149.71;80.43
53916;BME280;39827;49.652;18.770;2023-11-19T07:16:19;75051.28;;;-149.71;81.25
53916;BME280;39827;49.652;18.770;2023-11-19T07:18:46;75061.31;;;-149.71;80.31
53916;BME280;39827;49.652;18.770;2023-11-19T07:21:15;75043.25;;;-149.71;81.48
53916;BME280;39827;49.652;18.770;2023-11-19T07:23:40;75041.22;;;-149.71;80.69
53916;BME280;39827;49.652;18.770;2023-11-19T07:26:07;75041.22;;;-149.71;80.41
53916;BME280;39827;49.652;18.770;2023-11-19T07:28:35;75043.25;;;-149.71;80.90
53916;BME280;39827;49.652;18.770;2023-11-19T07:31:00;75035.19;;;-149.71;80.63
53916;BME280;39827;49.652;18.770;2023-11-19T07:33:26;75033.19;;;-149.71;80.89
53916;BME280;39827;49.652;18.770;2023-11-19T07:35:51;75051.28;;;-149.71;80.27
53916;BME280;39827;49.652;18.770;2023-11-19T07:38:16;75031.19;;;-149.71;79.82
53916;BME280;39827;49.652;18.770;2023-11-19T07:40:42;75041.22;;;-149.71;80.76
53916;BME280;39827;49.652;18.770;2023-11-19T07:43:07;75033.19;;;-149.71;80.74
53916;BME280;39827;49.652;18.770;2023-11-19T07:45:33;75033.19;;;-149.71;80.72
53916;BME280;39827;49.652;18.770;2023-11-19T07:47:59;75031.19;;;-149.71;80.58
53916;BME280;39827;49.652;18.770;2023-11-19T07:50:26;75013.09;;;-149.71;80.03
53916;BME280;39827;49.652;18.770;2023-11-19T07:52:52;75013.09;;;-149.71;80.56
53916;BME280;39827;49.652;18.770;2023-11-19T07:55:17;75007.06;;;-149.71;80.09
53916;BME280;39827;49.652;18.770;2023-11-19T07:57:42;75015.09;;;-149.71;79.89
53916;BME280;39827;49.652;18.770;2023-11-19T08:00:08;75013.09;;;-149.71;80.53
53916;BME280;39827;49.652;18.770;2023-11-19T08:02:37;74999.03;;;-149.71;79.54
53916;BME280;39827;49.652;18.770;2023-11-19T08:05:03;74972.91;;;-149.71;79.23
53916;BME280;39827;49.652;18.770;2023-11-19T08:07:29;74960.84;;;-149.71;78.42
53916;BME280;39827;49.652;18.770;2023-11-19T08:09:54;74952.81;;;-149.71;78.24
53916;BME280;39827;49.652;18.770;2023-11-19T08:12:19;74940.75;;;-149.71;77.97
53916;BME280;39827;49.652;18.770;2023-11-19T08:14:45;74918.66;;;-149.71;77.43
53916;BME280;39827;49.652;18.770;2023-11-19T08:17:10;74904.59;;;-149.71;77.44
53916;BME280;39827;49.652;18.770;2023-11-19T08:19:36;74920.66;;;-149.71;77.97
53916;BME280;39827;49.652;18.770;2023-11-19T08:22:01;74904.59;;;-149.71;77.61
53916;BME280;39827;49.652;18.770;2023-11-19T08:24:27;74886.50;;;-149.71;77.05
53916;BME280;39827;49.652;18.770;2023-11-19T08:26:53;74876.44;;;-149.71;76.97
53916;BME280;39827;49.652;18.770;2023-11-19T08:29:19;74902.56;;;-149.71;77.23
53916;BME280;39827;49.652;18.770;2023-11-19T08:31:45;74900.56;;;-149.71;77.66
53916;BME280;39827;49.652;18.770;2023-11-19T08:34:11;74914.63;;;-149.71;78.06
53916;BME280;39827;49.652;18.770;2023-11-19T08:36:37;74908.59;;;-149.71;78.54
53916;BME280;39827;49.652;18.770;2023-11-19T08:39:03;74928.69;;;-149.71;78.35
53916;BME280;39827;49.652;18.770;2023-11-19T08:41:28;74922.66;;;-149.71;77.70
53916;BME280;39827;49.652;18.770;2023-11-19T08:43:54;74922.66;;;-149.71;78.20
53916;BME280;39827;49.652;18.770;2023-11-19T08:46:19;74922.66;;;-149.71;78.42
53916;BME280;39827;49.652;18.770;2023-11-19T08:48:45;74908.59;;;-149.71;78.31
53916;BME280;39827;49.652;18.770;2023-11-19T08:51:11;74918.66;;;-149.71;77.98
53916;BME280;39827;49.652;18.770;2023-11-19T08:53:37;74952.81;;;-149.71;78.57
53916;BME280;39827;49.652;18.770;2023-11-19T08:56:02;74946.78;;;-149.71;78.93
53916;BME280;39827;49.652;18.770;2023-11-19T08:58:28;74920.66;;;-149.71;78.79
53916;BME280;39827;49.652;18.770;2023-11-19T09:00:54;74906.59;;;-149.71;78.04
53916;BME280;39827;49.652;18.770;2023-11-19T09:03:19;74902.56;;;-149.71;77.81
53916;BME280;39827;49.652;18.770;2023-11-19T09:05:45;74896.53;;;-149.71;78.09
53916;BME280;39827;49.652;18.770;2023-11-19T09:08:11;74898.56;;;-149.71;78.49
53916;BME280;39827;49.652;18.770;2023-11-19T09:10:37;74894.53;;;-149.71;79.46
53916;BME280;39827;49.652;18.770;2023-11-19T09:13:02;74894.53;;;-149.71;78.67
53916;BME280;39827;49.652;18.770;2023-11-19T09:15:29;74882.47;;;-149.71;78.17
53916;BME280;39827;49.652;18.770;2023-11-19T09:17:54;74858.38;;;-149.71;78.37
53916;BME280;39827;49.652;18.770;2023-11-19T09:20:20;74832.25;;;-149.71;77.99
53916;BME280;39827;49.652;18.770;2023-11-19T09:22:45;74816.16;;;-149.71;77.71
53916;BME280;39827;49.652;18.770;2023-11-19T09:25:11;74826.22;;;-149.71;77.72
53916;BME280;39827;49.652;18.770;2023-11-19T09:27:37;74796.06;;;-149.71;77.60
53916;BME280;39827;49.652;18.770;2023-11-19T09:30:03;74802.09;;;-149.71;76.79
53916;BME280;39827;49.652;18.770;2023-11-19T09:32:29;74798.09;;;-149.71;76.80
53916;BME280;39827;49.652;18.770;2023-11-19T09:34:54;74820.19;;;-149.71;77.70
53916;BME280;39827;49.652;18.770;2023-11-19T09:37:19;74792.06;;;-149.71;77.56
53916;BME280;39827;49.652;18.770;2023-11-19T09:39:45;74780.00;;;-149.71;77.60
53916;BME280;39827;49.652;18.770;2023-11-19T09:42:11;74786.03;;;-149.71;77.87
53916;BME280;39827;49.652;18.770;2023-11-19T09:44:38;74788.03;;;-149.71;78.33
53916;BME280;39827;49.652;18.770;2023-11-19T09:47:05;74780.00;;;-149.71;78.26
53916;BME280;39827;49.652;18.770;2023-11-19T09:49:32;74790.03;;;-149.71;78.19
53916;BME280;39827;49.652;18.770;2023-11-19T09:51:58;74794.06;;;-149.71;78.17
53916;BME280;39827;49.652;18.770;2023-11-19T09:54:24;74814.16;;;-149.71;78.17
53916;BME280;39827;49.652;18.770;2023-11-19T09:56:49;74784.03;;;-149.71;77.93
53916;BME280;39827;49.652;18.770;2023-11-19T09:59:16;74771.97;;;-149.71;78.04
53916;BME280;39827;49.652;18.770;2023-11-19T10:01:42;74771.97;;;-149.71;78.91
53916;BME280;39827;49.652;18.770;2023-11-19T10:04:09;74800.09;;;-149.71;79.52
53916;BME280;39827;49.652;18.770;2023-11-19T10:06:36;74800.09;;;-149.71;79.62
53916;BME280;39827;49.652;18.770;2023-11-19T10:09:02;74786.03;;;-149.71;80.34
53916;BME280;39827;49.652;18.770;2023-11-19T10:11:30;74775.97;;;-149.71;80.49
53916;BME280;39827;49.652;18.770;2023-11-19T10:13:55;74765.94;;;-149.71;80.63
53916;BME280;39827;49.652;18.770;2023-11-19T10:16:28;74733.78;;;-149.71;79.49
53916;BME280;39827;49.652;18.770;2023-11-19T10:18:55;74737.81;;;-149.71;80.04
53916;BME280;39827;49.652;18.770;2023-11-19T10:21:21;74703.66;;;-149.71;79.68
53916;BME280;39827;49.652;18.770;2023-11-19T10:23:57;74707.66;;;-149.71;78.99
53916;BME280;39827;49.652;18.770;2023-11-19T10:26:25;74711.69;;;-149.71;79.82
53916;BME280;39827;49.652;18.770;2023-11-19T10:28:51;74709.66;;;-149.71;79.72
53916;BME280;39827;49.652;18.770;2023-11-19T10:31:18;74721.72;;;-149.71;80.17
53916;BME280;39827;49.652;18.770;2023-11-19T10:33:44;74723.75;;;-149.71;80.96
53916;BME280;39827;49.652;18.770;2023-11-19T10:36:11;74721.72;;;-149.71;80.79
53916;BME280;39827;49.652;18.770;2023-11-19T10:38:40;74719.72;;;-149.71;80.93
53916;BME280;39827;49.652;18.770;2023-11-19T10:41:06;74725.75;;;-149.71;81.00
53916;BME280;39827;49.652;18.770;2023-11-19T10:43:45;74765.94;;;-149.71;82.02
53916;BME280;39827;49.652;18.770;2023-11-19T10:46:11;74759.91;;;-149.71;83.38
53916;BME280;39827;49.652;18.770;2023-11-19T10:48:38;74747.84;;;-149.71;83.27
53916;BME280;39827;49.652;18.770;2023-11-19T10:51:05;74763.94;;;-149.71;84.24
53916;BME280;39827;49.652;18.770;2023-11-19T10:53:37;74749.84;;;-149.71;84.51
53916;BME280;39827;49.652;18.770;2023-11-19T10:56:06;74765.94;;;-149.71;84.16
53916;BME280;39827;49.652;18.770;2023-11-19T10:58:35;74757.91;;;-149.71;84.52
53916;BME280;39827;49.652;18.770;2023-11-19T11:01:08;74767.94;;;-149.71;84.98
53916;BME280;39827;49.652;18.770;2023-11-19T11:03:44;74765.94;;;-149.71;84.68
53916;BME280;39827;49.652;18.770;2023-11-19T11:06:12;74749.84;;;-149.71;84.40
53916;BME280;39827;49.652;18.770;2023-11-19T11:08:39;74761.91;;;-149.71;84.24
53916;BME280;39827;49.652;18.770;2023-11-19T11:11:05;74763.94;;;-149.71;84.78
53916;BME280;39827;49.652;18.770;2023-11-19T11:13:33;74792.06;;;-149.71;84.87
53916;BME280;39827;49.652;18.770;2023-11-19T11:15:59;74771.97;;;-149.71;85.08
53916;BME280;39827;49.652;18.770;2023-11-19T11:18:25;74773.97;;;-149.71;85.77
53916;BME280;39827;49.652;18.770;2023-11-19T11:20:55;74761.91;;;-149.71;86.02
53916;BME280;39827;49.652;18.770;2023-11-19T11:32:02;74753.88;;;-149.71;86.07
53916;BME280;39827;49.652;18.770;2023-11-19T11:37:39;74733.78;;;-149.71;85.95
53916;BME280;39827;49.652;18.770;2023-11-19T11:40:14;74731.78;;;-149.71;85.80
53916;BME280;39827;49.652;18.770;2023-11-19T11:42:41;74709.66;;;-149.71;86.04
53916;BME280;39827;49.652;18.770;2023-11-19T11:45:07;74713.69;;;-149.71;86.21
53916;BME280;39827;49.652;18.770;2023-11-19T11:50:09;74681.53;;;-149.71;86.28
53916;BME280;39827;49.652;18.770;2023-11-19T11:55:28;74663.47;;;-149.71;85.65
53916;BME280;39827;49.652;18.770;2023-11-19T11:57:56;74671.50;;;-149.71;85.73
53916;BME280;39827;49.652;18.770;2023-11-19T12:00:26;74673.50;;;-149.71;85.66
53916;BME280;39827;49.652;18.770;2023-11-19T12:02:55;74667.47;;;-149.71;85.80
53916;BME280;39827;49.652;18.770;2023-11-19T12:05:21;74657.44;;;-149.71;85.75
53916;BME280;39827;49.652;18.770;2023-11-19T12:08:05;74671.50;;;-149.71;86.26
53916;BME280;39827;49.652;18.770;2023-11-19T12:10:49;74677.53;;;-149.71;87.02
53916;BME280;39827;49.652;18.770;2023-11-19T12:13:16;74659.44;;;-149.71;87.13
53916;BME280;39827;49.652;18.770;2023-11-19T12:18:31;74653.41;;;-149.71;87.90
53916;BME280;39827;49.652;18.770;2023-11-19T12:20:58;74677.53;;;-149.71;88.34
53916;BME280;39827;49.652;18.770;2023-11-19T12:23:30;74651.41;;;-149.71;88.47
53916;BME280;39827;49.652;18.770;2023-11-19T12:25:57;74659.44;;;-149.71;88.62
53916;BME280;39827;49.652;18.770;2023-11-19T12:28:23;74661.44;;;-149.71;89.49
53916;BME280;39827;49.652;18.770;2023-11-19T12:30:51;74653.41;;;-149.71;89.26
53916;BME280;39827;49.652;18.770;2023-11-19T12:33:17;74641.34;;;-149.71;88.99
53916;BME280;39827;49.652;18.770;2023-11-19T12:35:44;74655.41;;;-149.71;88.92
53916;BME280;39827;49.652;18.770;2023-11-19T12:38:22;74665.47;;;-149.71;88.93
53916;BME280;39827;49.652;18.770;2023-11-19T12:41:02;74651.41;;;-149.71;88.60
53916;BME280;39827;49.652;18.770;2023-11-19T12:43:28;74659.44;;;-149.71;88.66
53916;BME280;39827;49.652;18.770;2023-11-19T12:45:53;74657.44;;;-149.71;89.06
53916;BME280;39827;49.652;18.770;2023-11-19T12:48:20;74661.44;;;-149.71;88.71
53916;BME280;39827;49.652;18.770;2023-11-19T12:50:52;74643.38;;;-149.71;88.89